sensor_id;sensor_type;location;lat;lon;timestamp;temperature;humidity
14006;DHT22;7078;51.542;7.314;2023-06-26T00:02:01;23.00;98.50
14006;DHT22;7078;51.542;7.314;2023-06-26T00:04:26;23.10;98.50
14006;DHT22;7078;51.542;7.314;2023-06-26T00:06:52;23.00;98.40
14006;DHT22;7078;51.542;7.314;2023-06-26T00:09:17;23.10;98.60
14006;DHT22;7078;51.542;7.314;2023-06-26T00:11:43;22.90;98.60
14006;DHT22;7078;51.542;7.314;2023-06-26T00:14:08;22.90;98.60
14006;DHT22;7078;51.542;7.314;2023-06-26T00:16:34;22.90;98.70
14006;DHT22;7078;51.542;7.314;2023-06-26T00:18:59;22.90;98.60
14006;DHT22;7078;51.542;7.314;2023-06-26T00:21:25;22.80;98.70
14006;DHT22;7078;51.542;7.314;2023-06-26T00:23:51;22.90;98.40
14006;DHT22;7078;51.542;7.314;2023-06-26T00:26:17;22.80;98.40
14006;DHT22;7078;51.542;7.314;2023-06-26T00:28:42;22.80;98.70
14006;DHT22;7078;51.542;7.314;2023-06-26T00:31:08;22.80;98.60
14006;DHT22;7078;51.542;7.314;2023-06-26T00:33:33;22.70;98.90
14006;DHT22;7078;51.542;7.314;2023-06-26T00:35:59;22.70;98.60
14006;DHT22;7078;51.542;7.314;2023-06-26T00:38:25;22.70;98.40
14006;DHT22;7078;51.542;7.314;2023-06-26T00:40:50;22.70;98.30
14006;DHT22;7078;51.542;7.314;2023-06-26T00:43:16;22.50;98.40
14006;DHT22;7078;51.542;7.314;2023-06-26T00:45:41;22.70;98.10
14006;DHT22;7078;51.542;7.314;2023-06-26T00:48:07;22.60;98.10
14006;DHT22;7078;51.542;7.314;2023-06-26T00:50:34;22.60;97.70
14006;DHT22;7078;51.542;7.314;2023-06-26T00:52:59;22.70;97.80
14006;DHT22;7078;51.542;7.314;2023-06-26T00:55:27;22.60;97.40
14006;DHT22;7078;51.542;7.314;2023-06-26T00:57:54;22.60;97.20
14006;DHT22;7078;51.542;7.314;2023-06-26T01:00:20;22.70;97.40
14006;DHT22;7078;51.542;7.314;2023-06-26T01:02:45;22.60;97.10
14006;DHT22;7078;51.542;7.314;2023-06-26T01:05:12;22.50;96.80
14006;DHT22;7078;51.542;7.314;2023-06-26T01:07:38;22.60;96.90
14006;DHT22;7078;51.542;7.314;2023-06-26T01:10:06;22.70;96.70
14006;DHT22;7078;51.542;7.314;2023-06-26T01:12:33;22.70;96.40
14006;DHT22;7078;51.542;7.314;2023-06-26T01:14:59;22.70;96.50
14006;DHT22;7078;51.542;7.314;2023-06-26T01:17:27;22.60;96.50
14006;DHT22;7078;51.542;7.314;2023-06-26T01:20:00;22.70;96.50
14006;DHT22;7078;51.542;7.314;2023-06-26T01:28:04;22.50;96.40
14006;DHT22;7078;51.542;7.314;2023-06-26T01:30:32;22.50;96.40
14006;DHT22;7078;51.542;7.314;2023-06-26T01:33:00;22.50;96.70
14006;DHT22;7078;51.542;7.314;2023-06-26T01:35:26;22.50;96.70
14006;DHT22;7078;51.542;7.314;2023-06-26T01:37:52;22.50;96.70
14006;DHT22;7078;51.542;7.314;2023-06-26T01:40:18;22.40;96.80
14006;DHT22;7078;51.542;7.314;2023-06-26T01:42:43;22.40;96.60
14006;DHT22;7078;51.542;7.314;2023-06-26T01:45:14;22.50;96.70
14006;DHT22;7078;51.542;7.314;2023-06-26T01:47:48;22.40;97.10
14006;DHT22;7078;51.542;7.314;2023-06-26T01:50:20;22.40;97.00
14006;DHT22;7078;51.542;7.314;2023-06-26T01:53:25;22.40;97.20
14006;DHT22;7078;51.542;7.314;2023-06-26T01:55:54;22.30;97.40
14006;DHT22;7078;51.542;7.314;2023-06-26T01:58:24;22.30;97.80
14006;DHT22;7078;51.542;7.314;2023-06-26T02:00:50;22.20;98.20
14006;DHT22;7078;51.542;7.314;2023-06-26T02:03:16;22.20;98.40
14006;DHT22;7078;51.542;7.314;2023-06-26T02:05:41;22.10;99.20
14006;DHT22;7078;51.542;7.314;2023-06-26T02:08:08;22.10;99.20
14006;DHT22;7078;51.542;7.314;2023-06-26T02:10:34;22.00;99.70
14006;DHT22;7078;51.542;7.314;2023-06-26T02:13:00;22.00;99.50
14006;DHT22;7078;51.542;7.314;2023-06-26T02:15:26;22.00;99.80
14006;DHT22;7078;51.542;7.314;2023-06-26T02:17:51;22.00;99.70
14006;DHT22;7078;51.542;7.314;2023-06-26T02:20:17;22.00;99.90
14006;DHT22;7078;51.542;7.314;2023-06-26T02:22:43;21.90;99.90
14006;DHT22;7078;51.542;7.314;2023-06-26T02:25:09;21.90;99.90
14006;DHT22;7078;51.542;7.314;2023-06-26T02:27:35;21.90;99.90
14006;DHT22;7078;51.542;7.314;2023-06-26T02:30:01;21.80;99.90
14006;DHT22;7078;51.542;7.314;2023-06-26T02:32:27;21.80;99.90
14006;DHT22;7078;51.542;7.314;2023-06-26T02:34:52;21.70;99.90
14006;DHT22;7078;51.542;7.314;2023-06-26T02:37:19;21.70;99.90
14006;DHT22;7078;51.542;7.314;2023-06-26T02:39:44;21.70;99.90
14006;DHT22;7078;51.542;7.314;2023-06-26T02:42:10;21.70;99.90
14006;DHT22;7078;51.542;7.314;2023-06-26T02:44:36;21.70;99.90
14006;DHT22;7078;51.542;7.314;2023-06-26T02:47:01;21.70;99.90
14006;DHT22;7078;51.542;7.314;2023-06-26T02:49:27;21.70;99.90
14006;DHT22;7078;51.542;7.314;2023-06-26T02:51:52;21.70;99.90
14006;DHT22;7078;51.542;7.314;2023-06-26T02:54:18;21.80;99.20
14006;DHT22;7078;51.542;7.314;2023-06-26T02:56:43;21.80;98.70
14006;DHT22;7078;51.542;7.314;2023-06-26T02:59:09;21.90;98.40
14006;DHT22;7078;51.542;7.314;2023-06-26T03:01:34;21.90;98.00
14006;DHT22;7078;51.542;7.314;2023-06-26T03:04:00;21.90;97.90
14006;DHT22;7078;51.542;7.314;2023-06-26T03:06:26;21.90;97.90
14006;DHT22;7078;51.542;7.314;2023-06-26T03:08:53;21.90;97.70
14006;DHT22;7078;51.542;7.314;2023-06-26T03:11:18;21.90;97.40
14006;DHT22;7078;51.542;7.314;2023-06-26T03:13:44;21.90;97.50
14006;DHT22;7078;51.542;7.314;2023-06-26T03:16:10;21.90;97.00
14006;DHT22;7078;51.542;7.314;2023-06-26T03:18:35;21.90;96.70
14006;DHT22;7078;51.542;7.314;2023-06-26T03:21:01;21.90;97.20
14006;DHT22;7078;51.542;7.314;2023-06-26T03:23:26;21.90;97.50
14006;DHT22;7078;51.542;7.314;2023-06-26T03:25:52;21.90;97.40
14006;DHT22;7078;51.542;7.314;2023-06-26T03:28:17;21.80;98.20
14006;DHT22;7078;51.542;7.314;2023-06-26T03:30:43;21.80;99.00
14006;DHT22;7078;51.542;7.314;2023-06-26T03:33:08;21.70;99.50
14006;DHT22;7078;51.542;7.314;2023-06-26T03:35:34;21.60;99.50
14006;DHT22;7078;51.542;7.314;2023-06-26T03:38:00;21.60;99.90
14006;DHT22;7078;51.542;7.314;2023-06-26T03:40:26;21.60;99.90
14006;DHT22;7078;51.542;7.314;2023-06-26T03:42:52;21.60;99.90
14006;DHT22;7078;51.542;7.314;2023-06-26T03:45:18;21.50;99.90
14006;DHT22;7078;51.542;7.314;2023-06-26T03:47:44;21.50;99.90
14006;DHT22;7078;51.542;7.314;2023-06-26T03:50:12;21.50;99.90
14006;DHT22;7078;51.542;7.314;2023-06-26T03:52:37;21.60;99.90
14006;DHT22;7078;51.542;7.314;2023-06-26T03:55:03;21.60;99.90
14006;DHT22;7078;51.542;7.314;2023-06-26T03:57:29;21.60;99.90
14006;DHT22;7078;51.542;7.314;2023-06-26T03:59:54;21.80;99.90
14006;DHT22;7078;51.542;7.314;2023-06-26T04:02:20;21.90;99.90
14006;DHT22;7078;51.542;7.314;2023-06-26T04:04:45;22.00;99.90
14006;DHT22;7078;51.542;7.314;2023-06-26T04:07:11;22.00;99.90
14006;DHT22;7078;51.542;7.314;2023-06-26T04:09:36;22.20;99.90
14006;DHT22;7078;51.542;7.314;2023-06-26T04:12:02;22.10;99.90
14006;DHT22;7078;51.542;7.314;2023-06-26T04:14:28;22.20;99.90
14006;DHT22;7078;51.542;7.314;2023-06-26T04:16:54;22.10;99.90
14006;DHT22;7078;51.542;7.314;2023-06-26T04:19:19;22.20;99.90
14006;DHT22;7078;51.542;7.314;2023-06-26T04:21:45;22.10;99.90
14006;DHT22;7078;51.542;7.314;2023-06-26T04:24:11;22.10;99.90
14006;DHT22;7078;51.542;7.314;2023-06-26T04:26:36;22.10;99.90
14006;DHT22;7078;51.542;7.314;2023-06-26T04:29:02;22.10;99.90
14006;DHT22;7078;51.542;7.314;2023-06-26T04:31:28;22.10;99.90
14006;DHT22;7078;51.542;7.314;2023-06-26T04:33:54;22.00;99.90
14006;DHT22;7078;51.542;7.314;2023-06-26T04:36:20;22.00;99.90
14006;DHT22;7078;51.542;7.314;2023-06-26T04:38:46;22.00;99.90
14006;DHT22;7078;51.542;7.314;2023-06-26T04:41:13;22.00;99.90
14006;DHT22;7078;51.542;7.314;2023-06-26T04:43:39;21.90;99.90
14006;DHT22;7078;51.542;7.314;2023-06-26T04:46:05;21.90;99.90
14006;DHT22;7078;51.542;7.314;2023-06-26T04:48:31;21.90;99.90
14006;DHT22;7078;51.542;7.314;2023-06-26T04:50:57;21.90;99.90
14006;DHT22;7078;51.542;7.314;2023-06-26T04:53:24;21.90;99.90
14006;DHT22;7078;51.542;7.314;2023-06-26T04:55:51;21.90;99.90
14006;DHT22;7078;51.542;7.314;2023-06-26T04:58:16;21.90;99.90
14006;DHT22;7078;51.542;7.314;2023-06-26T05:00:42;21.90;99.90
14006;DHT22;7078;51.542;7.314;2023-06-26T05:03:12;21.90;99.90
14006;DHT22;7078;51.542;7.314;2023-06-26T05:05:38;22.00;99.90
14006;DHT22;7078;51.542;7.314;2023-06-26T05:08:33;22.00;99.90
14006;DHT22;7078;51.542;7.314;2023-06-26T05:10:59;22.00;99.90
14006;DHT22;7078;51.542;7.314;2023-06-26T05:13:25;22.10;99.90
14006;DHT22;7078;51.542;7.314;2023-06-26T05:15:52;22.10;99.90
14006;DHT22;7078;51.542;7.314;2023-06-26T05:18:17;22.10;99.90
14006;DHT22;7078;51.542;7.314;2023-06-26T05:20:43;22.10;99.90
14006;DHT22;7078;51.542;7.314;2023-06-26T05:23:11;22.00;99.90
14006;DHT22;7078;51.542;7.314;2023-06-26T05:25:37;22.00;99.90
14006;DHT22;7078;51.542;7.314;2023-06-26T05:28:04;22.00;99.90
14006;DHT22;7078;51.542;7.314;2023-06-26T05:30:35;22.10;99.90
14006;DHT22;7078;51.542;7.314;2023-06-26T05:33:02;22.10;99.90
14006;DHT22;7078;51.542;7.314;2023-06-26T05:35:29;22.20;99.90
14006;DHT22;7078;51.542;7.314;2023-06-26T05:37:55;22.20;99.90
14006;DHT22;7078;51.542;7.314;2023-06-26T05:40:22;22.10;99.90
14006;DHT22;7078;51.542;7.314;2023-06-26T05:42:48;22.00;99.90
14006;DHT22;7078;51.542;7.314;2023-06-26T05:45:14;21.90;99.90
14006;DHT22;7078;51.542;7.314;2023-06-26T05:47:39;21.90;99.90
14006;DHT22;7078;51.542;7.314;2023-06-26T05:50:06;21.90;99.90
14006;DHT22;7078;51.542;7.314;2023-06-26T05:52:33;22.00;99.90
14006;DHT22;7078;51.542;7.314;2023-06-26T05:54:58;22.10;99.90
14006;DHT22;7078;51.542;7.314;2023-06-26T05:57:29;22.30;99.90
14006;DHT22;7078;51.542;7.314;2023-06-26T05:59:55;22.30;99.90
14006;DHT22;7078;51.542;7.314;2023-06-26T06:02:21;22.30;99.90
14006;DHT22;7078;51.542;7.314;2023-06-26T06:04:46;22.40;99.90
14006;DHT22;7078;51.542;7.314;2023-06-26T06:07:12;22.40;99.90
14006;DHT22;7078;51.542;7.314;2023-06-26T06:09:38;22.40;99.90
14006;DHT22;7078;51.542;7.314;2023-06-26T06:12:05;22.30;99.90
14006;DHT22;7078;51.542;7.314;2023-06-26T06:14:31;22.30;99.90
14006;DHT22;7078;51.542;7.314;2023-06-26T06:16:57;22.10;99.90
14006;DHT22;7078;51.542;7.314;2023-06-26T06:19:23;22.10;99.90
14006;DHT22;7078;51.542;7.314;2023-06-26T06:21:48;21.90;99.90
14006;DHT22;7078;51.542;7.314;2023-06-26T06:24:14;21.80;99.90
14006;DHT22;7078;51.542;7.314;2023-06-26T06:26:39;21.70;99.90
14006;DHT22;7078;51.542;7.314;2023-06-26T06:29:05;21.70;99.90
14006;DHT22;7078;51.542;7.314;2023-06-26T06:31:31;21.70;99.90
14006;DHT22;7078;51.542;7.314;2023-06-26T06:33:57;21.80;99.90
14006;DHT22;7078;51.542;7.314;2023-06-26T06:36:22;21.90;99.90
14006;DHT22;7078;51.542;7.314;2023-06-26T06:38:48;21.90;99.90
14006;DHT22;7078;51.542;7.314;2023-06-26T06:41:13;22.00;99.90
14006;DHT22;7078;51.542;7.314;2023-06-26T06:43:39;22.20;99.90
14006;DHT22;7078;51.542;7.314;2023-06-26T06:46:05;22.50;99.90
14006;DHT22;7078;51.542;7.314;2023-06-26T06:48:31;22.70;99.90
14006;DHT22;7078;51.542;7.314;2023-06-26T06:50:57;22.80;99.90
14006;DHT22;7078;51.542;7.314;2023-06-26T06:53:22;22.80;99.90
14006;DHT22;7078;51.542;7.314;2023-06-26T06:55:49;22.70;99.90
14006;DHT22;7078;51.542;7.314;2023-06-26T06:58:14;22.60;99.90
14006;DHT22;7078;51.542;7.314;2023-06-26T07:00:42;22.40;99.90
14006;DHT22;7078;51.542;7.314;2023-06-26T07:03:08;22.20;99.90
14006;DHT22;7078;51.542;7.314;2023-06-26T07:05:33;22.10;99.90
14006;DHT22;7078;51.542;7.314;2023-06-26T07:07:59;22.10;99.90
14006;DHT22;7078;51.542;7.314;2023-06-26T07:10:24;22.20;99.90
14006;DHT22;7078;51.542;7.314;2023-06-26T07:12:50;22.10;99.90
14006;DHT22;7078;51.542;7.314;2023-06-26T07:15:16;22.00;99.90
14006;DHT22;7078;51.542;7.314;2023-06-26T07:17:42;22.20;99.90
14006;DHT22;7078;51.542;7.314;2023-06-26T07:20:08;22.30;99.90
14006;DHT22;7078;51.542;7.314;2023-06-26T07:22:36;22.30;99.90
14006;DHT22;7078;51.542;7.314;2023-06-26T07:25:02;22.20;99.90
14006;DHT22;7078;51.542;7.314;2023-06-26T07:27:27;22.20;99.90
14006;DHT22;7078;51.542;7.314;2023-06-26T07:29:53;22.30;99.90
14006;DHT22;7078;51.542;7.314;2023-06-26T07:32:18;22.40;99.90
14006;DHT22;7078;51.542;7.314;2023-06-26T07:34:45;22.50;99.90
14006;DHT22;7078;51.542;7.314;2023-06-26T07:37:10;22.60;99.90
14006;DHT22;7078;51.542;7.314;2023-06-26T07:39:36;22.40;99.90
14006;DHT22;7078;51.542;7.314;2023-06-26T07:42:02;22.30;99.90
14006;DHT22;7078;51.542;7.314;2023-06-26T07:44:27;22.40;99.90
14006;DHT22;7078;51.542;7.314;2023-06-26T07:46:53;22.40;99.90
14006;DHT22;7078;51.542;7.314;2023-06-26T07:49:18;22.50;99.90
14006;DHT22;7078;51.542;7.314;2023-06-26T07:51:44;22.70;99.90
14006;DHT22;7078;51.542;7.314;2023-06-26T07:54:09;22.90;99.90
14006;DHT22;7078;51.542;7.314;2023-06-26T07:57:01;23.00;99.90
14006;DHT22;7078;51.542;7.314;2023-06-26T07:59:28;22.90;99.90
14006;DHT22;7078;51.542;7.314;2023-06-26T08:01:55;22.80;99.90
14006;DHT22;7078;51.542;7.314;2023-06-26T08:04:26;22.80;99.90
14006;DHT22;7078;51.542;7.314;2023-06-26T08:06:55;23.10;99.90
14006;DHT22;7078;51.542;7.314;2023-06-26T08:09:25;23.30;99.90
14006;DHT22;7078;51.542;7.314;2023-06-26T08:11:51;23.40;99.90
14006;DHT22;7078;51.542;7.314;2023-06-26T08:14:17;23.60;99.90
14006;DHT22;7078;51.542;7.314;2023-06-26T08:16:43;23.90;99.90
14006;DHT22;7078;51.542;7.314;2023-06-26T08:19:10;23.90;99.90
14006;DHT22;7078;51.542;7.314;2023-06-26T08:21:36;23.80;99.90
14006;DHT22;7078;51.542;7.314;2023-06-26T08:24:02;23.80;99.90
14006;DHT22;7078;51.542;7.314;2023-06-26T08:26:28;23.80;99.90
14006;DHT22;7078;51.542;7.314;2023-06-26T08:28:54;23.60;99.90
14006;DHT22;7078;51.542;7.314;2023-06-26T08:31:19;23.60;99.90
14006;DHT22;7078;51.542;7.314;2023-06-26T08:33:46;23.70;99.90
14006;DHT22;7078;51.542;7.314;2023-06-26T08:36:11;23.70;99.90
14006;DHT22;7078;51.542;7.314;2023-06-26T08:38:37;23.70;99.90
14006;DHT22;7078;51.542;7.314;2023-06-26T08:41:06;23.80;99.90
14006;DHT22;7078;51.542;7.314;2023-06-26T08:43:31;23.90;99.90
14006;DHT22;7078;51.542;7.314;2023-06-26T08:45:57;23.80;99.90
14006;DHT22;7078;51.542;7.314;2023-06-26T08:48:23;23.90;99.90
14006;DHT22;7078;51.542;7.314;2023-06-26T08:50:52;24.10;99.90
14006;DHT22;7078;51.542;7.314;2023-06-26T08:53:23;24.20;99.90
14006;DHT22;7078;51.542;7.314;2023-06-26T08:55:54;24.00;99.90
14006;DHT22;7078;51.542;7.314;2023-06-26T08:58:22;24.00;99.90
14006;DHT22;7078;51.542;7.314;2023-06-26T09:00:48;23.90;99.90
14006;DHT22;7078;51.542;7.314;2023-06-26T09:03:15;23.80;99.90
14006;DHT22;7078;51.542;7.314;2023-06-26T09:05:41;23.60;99.90
14006;DHT22;7078;51.542;7.314;2023-06-26T09:08:07;23.50;99.90
14006;DHT22;7078;51.542;7.314;2023-06-26T09:10:33;23.40;99.90
14006;DHT22;7078;51.542;7.314;2023-06-26T09:12:59;23.30;99.90
14006;DHT22;7078;51.542;7.314;2023-06-26T09:15:26;23.30;99.90
14006;DHT22;7078;51.542;7.314;2023-06-26T09:17:56;23.40;99.90
14006;DHT22;7078;51.542;7.314;2023-06-26T09:20:23;23.70;99.90
14006;DHT22;7078;51.542;7.314;2023-06-26T09:22:48;23.80;99.90
14006;DHT22;7078;51.542;7.314;2023-06-26T09:25:14;23.80;99.90
14006;DHT22;7078;51.542;7.314;2023-06-26T09:27:40;23.80;99.90
14006;DHT22;7078;51.542;7.314;2023-06-26T09:30:08;23.90;99.90
14006;DHT22;7078;51.542;7.314;2023-06-26T09:32:34;23.90;99.90
14006;DHT22;7078;51.542;7.314;2023-06-26T09:35:02;24.00;99.90
14006;DHT22;7078;51.542;7.314;2023-06-26T09:37:28;24.30;99.90
14006;DHT22;7078;51.542;7.314;2023-06-26T09:39:54;24.60;99.90
14006;DHT22;7078;51.542;7.314;2023-06-26T09:42:20;24.60;99.90
14006;DHT22;7078;51.542;7.314;2023-06-26T09:44:46;24.70;99.90
14006;DHT22;7078;51.542;7.314;2023-06-26T09:47:12;24.70;99.90
14006;DHT22;7078;51.542;7.314;2023-06-26T09:49:41;24.60;99.90
14006;DHT22;7078;51.542;7.314;2023-06-26T09:52:17;24.50;99.90
14006;DHT22;7078;51.542;7.314;2023-06-26T09:54:43;24.30;99.90
14006;DHT22;7078;51.542;7.314;2023-06-26T09:57:16;24.50;99.90
14006;DHT22;7078;51.542;7.314;2023-06-26T09:59:42;24.50;99.30
14006;DHT22;7078;51.542;7.314;2023-06-26T10:02:08;24.50;99.90
14006;DHT22;7078;51.542;7.314;2023-06-26T10:04:35;24.30;99.90
14006;DHT22;7078;51.542;7.314;2023-06-26T10:07:11;24.10;98.40
14006;DHT22;7078;51.542;7.314;2023-06-26T10:09:41;24.10;98.10
14006;DHT22;7078;51.542;7.314;2023-06-26T10:12:28;24.40;97.50
14006;DHT22;7078;51.542;7.314;2023-06-26T10:14:57;24.40;96.20
14006;DHT22;7078;51.542;7.314;2023-06-26T10:17:25;24.60;94.90
14006;DHT22;7078;51.542;7.314;2023-06-26T10:19:53;24.90;93.90
14006;DHT22;7078;51.542;7.314;2023-06-26T10:25:06;25.10;90.10
14006;DHT22;7078;51.542;7.314;2023-06-26T10:27:36;25.20;88.90
14006;DHT22;7078;51.542;7.314;2023-06-26T10:30:06;24.90;87.50
14006;DHT22;7078;51.542;7.314;2023-06-26T10:32:34;24.70;90.20
14006;DHT22;7078;51.542;7.314;2023-06-26T10:35:01;24.60;87.60
14006;DHT22;7078;51.542;7.314;2023-06-26T10:37:44;24.70;88.10
14006;DHT22;7078;51.542;7.314;2023-06-26T10:40:11;24.80;89.20
14006;DHT22;7078;51.542;7.314;2023-06-26T10:42:38;24.80;84.80
14006;DHT22;7078;51.542;7.314;2023-06-26T10:45:28;24.90;84.00
14006;DHT22;7078;51.542;7.314;2023-06-26T10:47:53;24.90;83.80
14006;DHT22;7078;51.542;7.314;2023-06-26T10:50:30;24.90;85.10
14006;DHT22;7078;51.542;7.314;2023-06-26T10:55:34;24.90;85.70
14006;DHT22;7078;51.542;7.314;2023-06-26T10:58:01;25.10;85.00
14006;DHT22;7078;51.542;7.314;2023-06-26T11:00:27;25.20;84.80
14006;DHT22;7078;51.542;7.314;2023-06-26T11:02:53;25.40;84.80
14006;DHT22;7078;51.542;7.314;2023-06-26T11:05:29;25.60;83.60
14006;DHT22;7078;51.542;7.314;2023-06-26T11:08:08;25.40;83.00
14006;DHT22;7078;51.542;7.314;2023-06-26T11:10:51;25.30;83.50
14006;DHT22;7078;51.542;7.314;2023-06-26T11:13:18;25.30;85.00
14006;DHT22;7078;51.542;7.314;2023-06-26T11:15:45;25.60;85.00
14006;DHT22;7078;51.542;7.314;2023-06-26T11:18:11;25.60;83.80
14006;DHT22;7078;51.542;7.314;2023-06-26T11:20:37;25.60;83.30
14006;DHT22;7078;51.542;7.314;2023-06-26T11:23:04;25.30;82.20
14006;DHT22;7078;51.542;7.314;2023-06-26T11:25:37;24.90;85.90
14006;DHT22;7078;51.542;7.314;2023-06-26T11:28:03;24.60;89.00
14006;DHT22;7078;51.542;7.314;2023-06-26T11:30:30;24.60;90.10
14006;DHT22;7078;51.542;7.314;2023-06-26T11:33:06;24.80;87.80
14006;DHT22;7078;51.542;7.314;2023-06-26T11:35:32;24.90;86.50
14006;DHT22;7078;51.542;7.314;2023-06-26T11:37:59;25.20;86.00
14006;DHT22;7078;51.542;7.314;2023-06-26T11:40:29;25.60;84.90
14006;DHT22;7078;51.542;7.314;2023-06-26T11:42:58;25.80;80.80
14006;DHT22;7078;51.542;7.314;2023-06-26T11:45:24;25.80;80.20
14006;DHT22;7078;51.542;7.314;2023-06-26T11:47:50;25.70;79.90
14006;DHT22;7078;51.542;7.314;2023-06-26T11:50:16;25.70;80.60
14006;DHT22;7078;51.542;7.314;2023-06-26T11:52:45;25.70;77.90
14006;DHT22;7078;51.542;7.314;2023-06-26T11:55:18;25.80;77.60
14006;DHT22;7078;51.542;7.314;2023-06-26T11:57:48;25.70;76.70
14006;DHT22;7078;51.542;7.314;2023-06-26T12:00:15;25.70;76.40
14006;DHT22;7078;51.542;7.314;2023-06-26T12:02:43;25.50;76.20
14006;DHT22;7078;51.542;7.314;2023-06-26T12:05:09;25.50;76.30
14006;DHT22;7078;51.542;7.314;2023-06-26T12:07:35;25.50;75.00
14006;DHT22;7078;51.542;7.314;2023-06-26T12:10:03;25.50;74.60
14006;DHT22;7078;51.542;7.314;2023-06-26T12:12:31;25.60;77.60
14006;DHT22;7078;51.542;7.314;2023-06-26T12:14:57;25.40;73.40
14006;DHT22;7078;51.542;7.314;2023-06-26T12:17:23;25.40;73.10
14006;DHT22;7078;51.542;7.314;2023-06-26T12:19:50;25.50;73.00
14006;DHT22;7078;51.542;7.314;2023-06-26T12:22:17;25.40;71.80
14006;DHT22;7078;51.542;7.314;2023-06-26T12:24:43;25.20;73.40
14006;DHT22;7078;51.542;7.314;2023-06-26T12:27:11;25.40;74.80
14006;DHT22;7078;51.542;7.314;2023-06-26T12:29:40;25.30;71.60
14006;DHT22;7078;51.542;7.314;2023-06-26T12:32:10;25.40;72.60
14006;DHT22;7078;51.542;7.314;2023-06-26T12:34:37;25.40;72.60
14006;DHT22;7078;51.542;7.314;2023-06-26T12:37:10;25.20;72.20
14006;DHT22;7078;51.542;7.314;2023-06-26T12:39:47;25.10;70.20
14006;DHT22;7078;51.542;7.314;2023-06-26T12:42:17;25.30;70.70
14006;DHT22;7078;51.542;7.314;2023-06-26T12:44:43;25.40;71.20
14006;DHT22;7078;51.542;7.314;2023-06-26T12:47:08;25.50;69.30
14006;DHT22;7078;51.542;7.314;2023-06-26T12:49:36;25.70;66.30
14006;DHT22;7078;51.542;7.314;2023-06-26T12:52:06;25.90;63.80
14006;DHT22;7078;51.542;7.314;2023-06-26T12:54:33;26.00;64.20
14006;DHT22;7078;51.542;7.314;2023-06-26T12:56:59;26.00;64.40
14006;DHT22;7078;51.542;7.314;2023-06-26T12:59:25;25.90;61.50
14006;DHT22;7078;51.542;7.314;2023-06-26T13:01:50;25.60;63.20
14006;DHT22;7078;51.542;7.314;2023-06-26T13:04:16;25.60;59.80
14006;DHT22;7078;51.542;7.314;2023-06-26T13:06:42;25.70;61.80
14006;DHT22;7078;51.542;7.314;2023-06-26T13:09:07;25.50;60.80
14006;DHT22;7078;51.542;7.314;2023-06-26T13:11:33;25.30;60.70
14006;DHT22;7078;51.542;7.314;2023-06-26T13:14:00;25.20;60.60
14006;DHT22;7078;51.542;7.314;2023-06-26T13:16:26;25.40;62.30
14006;DHT22;7078;51.542;7.314;2023-06-26T13:18:51;25.40;60.70
14006;DHT22;7078;51.542;7.314;2023-06-26T13:21:17;25.40;61.60
14006;DHT22;7078;51.542;7.314;2023-06-26T13:23:43;25.40;61.90
14006;DHT22;7078;51.542;7.314;2023-06-26T13:26:09;25.50;62.50
14006;DHT22;7078;51.542;7.314;2023-06-26T13:28:36;25.50;63.40
14006;DHT22;7078;51.542;7.314;2023-06-26T13:31:02;25.40;62.60
14006;DHT22;7078;51.542;7.314;2023-06-26T13:33:28;25.40;61.80
14006;DHT22;7078;51.542;7.314;2023-06-26T13:35:53;25.40;62.40
14006;DHT22;7078;51.542;7.314;2023-06-26T13:38:20;25.40;59.70
14006;DHT22;7078;51.542;7.314;2023-06-26T13:40:53;25.40;59.90
14006;DHT22;7078;51.542;7.314;2023-06-26T13:43:20;25.30;57.70
14006;DHT22;7078;51.542;7.314;2023-06-26T13:45:46;25.40;57.40
14006;DHT22;7078;51.542;7.314;2023-06-26T13:48:12;25.50;59.00
14006;DHT22;7078;51.542;7.314;2023-06-26T13:50:38;25.70;57.50
14006;DHT22;7078;51.542;7.314;2023-06-26T13:53:04;25.80;57.00
14006;DHT22;7078;51.542;7.314;2023-06-26T13:55:29;26.00;56.30
14006;DHT22;7078;51.542;7.314;2023-06-26T13:57:56;26.00;54.60
14006;DHT22;7078;51.542;7.314;2023-06-26T14:00:21;26.00;54.00
14006;DHT22;7078;51.542;7.314;2023-06-26T14:02:48;26.20;53.90
14006;DHT22;7078;51.542;7.314;2023-06-26T14:05:13;26.40;53.90
14006;DHT22;7078;51.542;7.314;2023-06-26T14:07:39;26.40;52.50
14006;DHT22;7078;51.542;7.314;2023-06-26T14:10:05;26.40;53.40
14006;DHT22;7078;51.542;7.314;2023-06-26T14:12:32;26.60;53.10
14006;DHT22;7078;51.542;7.314;2023-06-26T14:14:57;26.80;54.80
14006;DHT22;7078;51.542;7.314;2023-06-26T14:17:23;27.10;57.80
14006;DHT22;7078;51.542;7.314;2023-06-26T14:19:54;27.30;57.30
14006;DHT22;7078;51.542;7.314;2023-06-26T14:22:20;27.60;55.70
14006;DHT22;7078;51.542;7.314;2023-06-26T14:24:45;27.60;50.80
14006;DHT22;7078;51.542;7.314;2023-06-26T14:27:11;27.50;50.60
14006;DHT22;7078;51.542;7.314;2023-06-26T14:29:36;27.20;50.60
14006;DHT22;7078;51.542;7.314;2023-06-26T14:32:03;27.00;51.60
14006;DHT22;7078;51.542;7.314;2023-06-26T14:34:28;26.80;51.80
14006;DHT22;7078;51.542;7.314;2023-06-26T14:36:55;26.80;53.10
14006;DHT22;7078;51.542;7.314;2023-06-26T14:39:20;27.00;54.00
14006;DHT22;7078;51.542;7.314;2023-06-26T14:41:46;26.80;53.00
14006;DHT22;7078;51.542;7.314;2023-06-26T14:44:13;26.40;55.50
14006;DHT22;7078;51.542;7.314;2023-06-26T14:46:39;26.10;57.80
14006;DHT22;7078;51.542;7.314;2023-06-26T14:49:04;26.00;60.00
14006;DHT22;7078;51.542;7.314;2023-06-26T14:51:30;25.70;59.40
14006;DHT22;7078;51.542;7.314;2023-06-26T14:53:55;25.40;60.30
14006;DHT22;7078;51.542;7.314;2023-06-26T14:56:21;25.10;62.10
14006;DHT22;7078;51.542;7.314;2023-06-26T14:58:46;24.70;61.10
14006;DHT22;7078;51.542;7.314;2023-06-26T15:01:16;24.50;62.20
14006;DHT22;7078;51.542;7.314;2023-06-26T15:03:43;24.40;63.50
14006;DHT22;7078;51.542;7.314;2023-06-26T15:06:09;24.30;64.70
14006;DHT22;7078;51.542;7.314;2023-06-26T15:08:34;24.30;65.80
14006;DHT22;7078;51.542;7.314;2023-06-26T15:11:03;24.50;64.90
14006;DHT22;7078;51.542;7.314;2023-06-26T15:13:28;24.90;65.30
14006;DHT22;7078;51.542;7.314;2023-06-26T15:15:54;25.40;62.80
14006;DHT22;7078;51.542;7.314;2023-06-26T15:18:20;25.60;61.60
14006;DHT22;7078;51.542;7.314;2023-06-26T15:20:45;25.80;60.30
14006;DHT22;7078;51.542;7.314;2023-06-26T15:23:11;26.30;61.10
14006;DHT22;7078;51.542;7.314;2023-06-26T15:25:36;26.60;61.30
14006;DHT22;7078;51.542;7.314;2023-06-26T15:28:11;27.10;57.90
14006;DHT22;7078;51.542;7.314;2023-06-26T15:30:36;27.60;58.10
14006;DHT22;7078;51.542;7.314;2023-06-26T15:33:02;27.50;58.40
14006;DHT22;7078;51.542;7.314;2023-06-26T15:35:27;27.40;58.90
14006;DHT22;7078;51.542;7.314;2023-06-26T15:37:53;27.60;58.80
14006;DHT22;7078;51.542;7.314;2023-06-26T15:40:19;27.00;58.20
14006;DHT22;7078;51.542;7.314;2023-06-26T15:42:46;26.30;59.60
14006;DHT22;7078;51.542;7.314;2023-06-26T15:45:12;25.60;61.70
14006;DHT22;7078;51.542;7.314;2023-06-26T15:47:37;25.00;60.70
14006;DHT22;7078;51.542;7.314;2023-06-26T15:50:03;24.60;63.10
14006;DHT22;7078;51.542;7.314;2023-06-26T15:52:28;24.60;63.60
14006;DHT22;7078;51.542;7.314;2023-06-26T15:54:54;24.80;63.50